Time;durP1;ratioP1;P1;durP2;ratioP2;P2;SDS_P1;SDS_P2;PMS_P1;PMS_P2;Temp;Humidity;BMP_temperature;BMP_pressure;BME280_temperature;BME280_humidity;BME280_pressure;Samples;Min_cycle;Max_cycle;Signal;HPM_P1;HPM_P2
2022/10/14 00:01:32;;;;;;;38.48;20.20;;;;;;;7.80;100.00;101045.92;1758540;81;21115;-65
2022/10/14 00:03:59;;;;;;;36.70;20.02;;;;;;;7.80;100.00;101045.92;1758656;81;21047;-65
2022/10/14 00:06:29;;;;;;;36.30;15.78;;;;;;;7.75;100.00;101044.25;1758370;81;21084;-65
2022/10/14 00:09:04;;;;;;;30.90;13.62;;;;;;;7.71;100.00;101045.16;1758816;81;21104;-65
2022/10/14 00:11:33;;;;;;;21.33;11.80;;;;;;;7.72;100.00;101044.25;1758403;81;21041;-65
2022/10/14 00:14:07;;;;;;;29.25;12.37;;;;;;;7.72;100.00;101037.70;1758732;81;21048;-66
2022/10/14 00:16:38;;;;;;;40.95;15.38;;;;;;;7.73;100.00;101039.45;1758722;81;21080;-65
2022/10/14 00:19:05;;;;;;;38.28;14.70;;;;;;;7.72;100.00;101042.08;1758614;81;21100;-65
2022/10/14 00:21:33;;;;;;;27.82;12.50;;;;;;;7.72;100.00;101043.40;1758284;81;21048;-66
2022/10/14 00:23:59;;;;;;;27.50;12.80;;;;;;;7.68;100.00;101035.99;1758230;81;21540;-65
2022/10/14 00:26:30;;;;;;;29.10;12.25;;;;;;;7.70;100.00;101031.60;1758239;81;21521;-65
2022/10/14 00:28:57;;;;;;;32.80;13.93;;;;;;;7.68;100.00;101029.89;1751652;80;21592;-65
2022/10/14 00:31:27;;;;;;;42.55;18.35;;;;;;;7.68;100.00;101033.37;1748024;82;21088;-65
2022/10/14 00:33:53;;;;;;;41.75;18.05;;;;;;;7.65;100.00;101036.03;1747862;81;21128;-65
2022/10/14 00:36:23;;;;;;;42.62;18.73;;;;;;;7.63;100.00;101037.80;1747944;82;21058;-65
2022/10/14 00:38:51;;;;;;;37.40;18.30;;;;;;;7.66;100.00;101036.48;1747831;82;21588;-64
2022/10/14 00:41:25;;;;;;;40.45;18.77;;;;;;;7.66;100.00;101032.55;1747424;82;21018;-66
2022/10/14 00:44:13;;;;;;;40.83;19.27;;;;;;;7.62;100.00;101033.45;1746541;82;21065;-64
2022/10/14 00:46:46;;;;;;;33.42;14.40;;;;;;;7.62;100.00;101038.70;1715186;83;22175;-64
2022/10/14 00:49:20;;;;;;;36.60;16.20;;;;;;;7.64;100.00;101028.17;1717681;83;21525;-65
2022/10/14 00:51:52;;;;;;;40.33;15.78;;;;;;;7.65;100.00;101028.17;1717461;83;21088;-65
2022/10/14 00:54:22;;;;;;;45.75;16.20;;;;;;;7.67;100.00;101030.78;1715583;83;21064;-65
2022/10/14 00:56:49;;;;;;;35.83;16.10;;;;;;;7.60;100.00;101037.84;1718147;83;27172;-65
2022/10/14 00:59:15;;;;;;;37.93;16.37;;;;;;;7.57;100.00;101027.40;1717878;83;21061;-64
2022/10/14 01:01:43;;;;;;;45.10;17.75;;;;;;;7.61;100.00;101029.08;1711563;82;21632;-65
2022/10/14 01:04:11;;;;;;;43.98;16.70;;;;;;;7.57;100.00;101030.02;1747255;82;21150;-66
2022/10/14 01:06:44;;;;;;;45.75;20.60;;;;;;;7.61;100.00;101019.05;1747589;82;21069;-65
2022/10/14 01:09:39;;;;;;;35.88;19.15;;;;;;;7.60;100.00;101017.32;1747488;82;21045;-64
2022/10/14 01:12:41;;;;;;;38.50;17.40;;;;;;;7.59;100.00;101020.36;1747267;82;21557;-64
2022/10/14 01:15:20;;;;;;;;;;;;;;;7.60;100.00;101012.08;1749963;82;21230;-64
2022/10/14 01:18:18;;;;;;;37.83;16.05;;;;;;;7.59;100.00;101012.49;1747430;82;20466;-65
2022/10/14 01:20:51;;;;;;;41.28;18.10;;;;;;;7.58;100.00;101018.64;1747534;82;21057;-64
2022/10/14 01:23:26;;;;;;;37.95;18.67;;;;;;;7.56;100.00;101018.64;1747870;82;21101;-66
2022/10/14 01:26:17;;;;;;;38.92;18.67;;;;;;;7.56;100.00;101017.78;1746316;82;21283;-64
2022/10/14 01:29:12;;;;;;;45.63;18.67;;;;;;;7.53;100.00;101019.99;1742654;81;21566;-64
2022/10/14 01:31:49;;;;;;;41.45;19.30;;;;;;;7.53;100.00;101011.27;1736670;82;21038;-65
2022/10/14 01:34:21;;;;;;;47.10;20.57;;;;;;;7.56;100.00;101008.61;1736575;82;21105;-65
2022/10/14 01:36:53;;;;;;;41.42;19.98;;;;;;;7.56;100.00;101005.53;1736639;82;21033;-65
2022/10/14 01:39:32;;;;;;;37.58;18.42;;;;;;;7.55;100.00;101000.33;1710722;82;21049;-65
2022/10/14 01:42:14;;;;;;;36.33;16.15;;;;;;;7.51;100.00;101003.86;1736535;82;21156;-64
2022/10/14 01:44:48;;;;;;;32.30;15.18;;;;;;;7.52;100.00;101009.52;1726757;82;21105;-64
2022/10/14 01:47:18;;;;;;;37.33;16.62;;;;;;;7.55;100.00;101005.58;1707179;83;21054;-64
2022/10/14 01:50:06;;;;;;;35.10;17.55;;;;;;;7.55;100.00;101002.95;1707135;83;21039;-64
2022/10/14 01:52:38;;;;;;;40.03;19.27;;;;;;;7.55;100.00;101000.33;1707042;84;21041;-65
2022/10/14 01:55:08;;;;;;;40.12;19.30;;;;;;;7.54;100.00;101005.12;1707402;84;21085;-65
2022/10/14 01:57:37;;;;;;;40.63;19.02;;;;;;;7.54;100.00;100994.64;1707088;83;21510;-64
2022/10/14 02:00:06;;;;;;;41.23;19.42;;;;;;;7.55;100.00;100999.87;1708249;82;21065;-64
2022/10/14 02:02:37;;;;;;;41.92;19.50;;;;;;;7.55;100.00;101002.95;1735846;82;21089;-64
2022/10/14 02:05:10;;;;;;;37.55;17.37;;;;;;;7.53;100.00;101004.72;1736818;82;21050;-64
2022/10/14 02:07:40;;;;;;;36.42;15.98;;;;;;;7.52;100.00;101003.86;1736476;82;22019;-64
2022/10/14 02:10:32;;;;;;;39.90;17.17;;;;;;;7.50;100.00;101000.80;1736755;82;21101;-65
2022/10/14 02:13:34;;;;;;;34.27;17.45;;;;;;;7.49;100.00;101001.70;1736601;82;21577;-65
2022/10/14 02:16:23;;;;;;;;;;;;;;;7.49;100.00;101002.55;1739211;82;21106;-63
2022/10/14 02:19:20;;;;;;;52.58;24.47;;;;;;;7.48;100.00;101002.59;1736558;82;20496;-65
2022/10/14 02:22:09;;;;;;;46.63;21.93;;;;;;;7.45;100.00;100996.91;1736609;82;21210;-63
2022/10/14 02:24:40;;;;;;;40.60;19.10;;;;;;;7.44;100.00;101002.19;1736546;82;21018;-64
2022/10/14 02:27:11;;;;;;;54.93;27.48;;;;;;;7.41;100.00;101004.41;1736585;82;21291;-64
2022/10/14 02:29:41;;;;;;;73.40;36.85;;;;;;;7.39;100.00;100997.00;1741745;81;21029;-65
2022/10/14 02:32:07;;;;;;;69.50;33.33;;;;;;;7.42;100.00;101005.27;1744992;82;21009;-64
2022/10/14 02:34:34;;;;;;;68.83;30.30;;;;;;;7.41;100.00;101003.51;1745053;80;21132;-65
2022/10/14 02:37:01;;;;;;;63.17;29.85;;;;;;;7.39;100.00;101000.92;1745048;82;21037;-64
2022/10/14 02:39:34;;;;;;;55.85;29.95;;;;;;;7.41;100.00;101002.20;1724207;82;21053;-65
2022/10/14 02:42:02;;;;;;;67.50;29.95;;;;;;;7.41;100.00;100999.58;1745000;82;21132;-64
2022/10/14 02:44:29;;;;;;;68.90;31.10;;;;;;;7.39;100.00;100999.62;1745162;82;21045;-65
2022/10/14 02:46:55;;;;;;;64.25;31.40;;;;;;;7.42;100.00;100993.47;1744964;82;21213;-64
2022/10/14 02:49:22;;;;;;;58.10;28.40;;;;;;;7.44;100.00;100999.13;1744808;82;21113;-65
2022/10/14 02:51:49;;;;;;;62.10;27.95;;;;;;;7.45;100.00;100997.36;1744857;82;21033;-64
2022/10/14 02:54:15;;;;;;;55.35;26.42;;;;;;;7.44;100.00;101003.05;1744872;82;21084;-64
2022/10/14 02:56:42;;;;;;;57.45;26.17;;;;;;;7.44;100.00;101002.19;1723957;82;21067;-65
2022/10/14 02:59:09;;;;;;;56.13;25.55;;;;;;;7.43;100.00;101005.68;1744971;82;21233;-64
2022/10/14 03:01:38;;;;;;;47.60;22.65;;;;;;;7.41;100.00;101003.51;1744132;82;21054;-64
2022/10/14 03:04:06;;;;;;;40.25;20.72;;;;;;;7.39;100.00;101002.69;1744991;82;21057;-65
2022/10/14 03:06:33;;;;;;;42.62;22.15;;;;;;;7.39;100.00;101004.00;1744988;82;21082;-65
2022/10/14 03:09:00;;;;;;;45.70;23.90;;;;;;;7.40;100.00;101004.41;1744845;80;21050;-65
2022/10/14 03:11:27;;;;;;;69.00;32.13;;;;;;;7.42;100.00;101009.20;1744842;82;21331;-65
2022/10/14 03:13:56;;;;;;;75.78;36.35;;;;;;;7.43;100.00;101005.68;1707927;84;21065;-64
2022/10/14 03:16:23;;;;;;;92.62;41.58;;;;;;;7.46;100.00;101008.29;1708508;84;21121;-64
2022/10/14 03:18:49;;;;;;;102.42;47.23;;;;;;;7.44;100.00;101005.67;1708555;84;21065;-65
2022/10/14 03:21:17;;;;;;;107.80;50.83;;;;;;;7.45;100.00;101009.16;1708357;84;21602;-64
2022/10/14 03:23:44;;;;;;;106.05;50.33;;;;;;;7.44;100.00;101003.50;1708531;84;22177;-64
2022/10/14 03:26:12;;;;;;;97.35;47.85;;;;;;;7.44;100.00;101004.81;1708780;84;21065;-64
2022/10/14 03:28:40;;;;;;;104.32;49.93;;;;;;;7.43;100.00;101003.06;1708836;83;21105;-64
2022/10/14 03:31:09;;;;;;;100.27;47.45;;;;;;;7.43;100.00;101005.68;1716550;83;21617;-64
2022/10/14 03:33:39;;;;;;;94.92;47.33;;;;;;;7.45;100.00;101005.22;1716194;83;21545;-64
2022/10/14 03:36:08;;;;;;;88.22;44.05;;;;;;;7.45;100.00;101004.77;1717082;83;21139;-64
2022/10/14 03:38:37;;;;;;;78.67;40.83;;;;;;;7.48;100.00;101003.91;1715497;83;21112;-64
2022/10/14 03:41:06;;;;;;;97.53;45.50;;;;;;;7.50;100.00;100999.48;1717313;83;21033;-66
2022/10/14 03:43:34;;;;;;;84.62;42.45;;;;;;;7.50;100.00;100992.52;1717160;83;21050;-63
2022/10/14 03:46:01;;;;;;;90.28;42.80;;;;;;;7.51;100.00;101000.79;1717279;83;21120;-64
2022/10/14 03:48:29;;;;;;;79.82;41.95;;;;;;;7.53;100.00;100995.55;1717249;83;21295;-64
2022/10/14 03:50:56;;;;;;;84.45;40.15;;;;;;;7.50;100.00;100996.86;1717049;83;21580;-65
2022/10/14 03:53:23;;;;;;;78.65;38.78;;;;;;;7.51;100.00;100999.93;1717200;83;21049;-64
2022/10/14 03:55:50;;;;;;;78.70;40.38;;;;;;;7.47;100.00;100995.15;1716983;83;21022;-65
2022/10/14 03:58:18;;;;;;;80.62;37.78;;;;;;;7.48;100.00;100998.66;1717224;83;21621;-65
2022/10/14 04:00:47;;;;;;;71.72;36.08;;;;;;;7.47;100.00;101012.63;1715993;83;21144;-65
2022/10/14 04:03:21;;;;;;;77.15;38.10;;;;;;;7.45;100.00;101005.22;1716641;83;21062;-64
2022/10/14 04:05:48;;;;;;;77.45;35.10;;;;;;;7.47;100.00;101012.18;1717320;83;21088;-65
2022/10/14 04:08:17;;;;;;;72.62;36.28;;;;;;;7.48;100.00;101009.14;1717127;83;21203;-65
2022/10/14 04:10:52;;;;;;;72.72;36.28;;;;;;;7.48;100.00;101011.77;1716524;83;21089;-66
2022/10/14 04:13:19;;;;;;;82.02;34.53;;;;;;;7.47;100.00;101008.70;1717448;83;21104;-65
2022/10/14 04:15:47;;;;;;;71.67;34.30;;;;;;;7.47;100.00;101009.56;1717211;83;21117;-64
2022/10/14 04:18:18;;;;;;;64.72;32.53;;;;;;;7.45;100.00;101007.39;1717094;83;21077;-67
2022/10/14 04:20:47;;;;;;;70.47;32.98;;;;;;;7.44;100.00;101004.81;1717315;82;21065;-64
2022/10/14 04:23:14;;;;;;;72.22;33.67;;;;;;;7.43;100.00;101005.68;1717452;83;21108;-65
2022/10/14 04:25:42;;;;;;;57.48;28.42;;;;;;;7.41;100.00;101004.82;1717369;83;21095;-65
2022/10/14 04:28:08;;;;;;;61.37;32.15;;;;;;;7.41;100.00;101004.82;1717388;83;21078;-65
2022/10/14 04:30:37;;;;;;;62.50;31.62;;;;;;;7.39;100.00;101002.69;1710175;83;21578;-66
2022/10/14 04:33:05;;;;;;;60.60;29.87;;;;;;;7.38;100.00;101005.72;1708408;84;21101;-64
2022/10/14 04:35:32;;;;;;;60.00;30.85;;;;;;;7.39;100.00;101011.86;1709024;84;21089;-65
2022/10/14 04:37:59;;;;;;;66.05;30.40;;;;;;;7.39;100.00;101007.48;1708584;84;22278;-65
2022/10/14 04:40:29;;;;;;;61.08;29.10;;;;;;;7.40;100.00;101008.34;1708468;84;21073;-64
2022/10/14 04:42:58;;;;;;;57.30;29.35;;;;;;;7.42;100.00;101007.89;1708655;84;21102;-65
2022/10/14 04:45:26;;;;;;;61.73;27.62;;;;;;;7.44;100.00;101010.05;1690133;84;21031;-65
2022/10/14 04:47:54;;;;;;;56.77;26.60;;;;;;;7.46;100.00;101009.60;1679519;85;21061;-64
2022/10/14 04:50:23;;;;;;;50.40;25.80;;;;;;;7.46;100.00;101013.53;1680234;85;21955;-64
2022/10/14 04:53:08;;;;;;;45.25;22.07;;;;;;;7.51;100.00;101009.10;1680181;85;21026;-64
2022/10/14 04:55:37;;;;;;;44.50;21.93;;;;;;;7.54;100.00;101010.37;1680235;85;21113;-65
2022/10/14 04:58:04;;;;;;;34.50;18.87;;;;;;;7.59;100.00;101017.73;1680111;85;21082;-64
2022/10/14 05:00:32;;;;;;;48.20;21.62;;;;;;;7.60;100.00;101014.25;1679980;85;21077;-65
2022/10/14 05:03:01;;;;;;;50.38;23.22;;;;;;;7.60;100.00;101009.00;1678685;85;21471;-66
2022/10/14 05:05:30;;;;;;;53.63;24.25;;;;;;;7.63;100.00;101003.72;1680074;85;21018;-65
2022/10/14 05:07:59;;;;;;;35.95;19.80;;;;;;;7.66;100.00;101014.19;1680189;85;21133;-65
2022/10/14 05:10:32;;;;;;;56.75;22.25;;;;;;;7.68;100.00;101014.16;1679855;85;21046;-65
2022/10/14 05:12:59;;;;;;;52.35;20.50;;;;;;;7.68;100.00;101012.39;1653286;85;21086;-66
2022/10/14 05:15:30;;;;;;;38.92;18.65;;;;;;;7.73;100.00;101014.97;1680289;85;21137;-66
2022/10/14 05:18:04;;;;;;;40.33;19.57;;;;;;;7.76;100.00;101019.75;1679583;85;21058;-65
2022/10/14 05:20:49;;;;;;;38.10;20.10;;;;;;;7.83;100.00;101021.86;1680063;85;21581;-65
2022/10/14 05:23:18;;;;;;;39.67;19.37;;;;;;;7.90;100.00;101029.22;1680101;85;21073;-66
2022/10/14 05:25:46;;;;;;;37.70;18.27;;;;;;;7.94;100.00;101025.68;1680099;85;21562;-66
2022/10/14 05:28:14;;;;;;;32.63;17.95;;;;;;;7.99;100.00;101026.03;1680134;85;21125;-66
2022/10/14 05:30:42;;;;;;;36.35;16.67;;;;;;;8.05;100.00;101031.67;1683419;84;21086;-65
2022/10/14 05:33:10;;;;;;;27.42;15.08;;;;;;;8.09;100.00;101030.72;1686120;83;21628;-66
2022/10/14 05:35:37;;;;;;;30.35;15.15;;;;;;;8.09;100.00;101032.48;1686216;85;21038;-65
2022/10/14 05:38:05;;;;;;;35.05;16.37;;;;;;;8.08;100.00;101034.24;1686182;85;21576;-64
2022/10/14 05:40:34;;;;;;;29.50;16.82;;;;;;;8.08;100.00;101038.18;1686253;83;21130;-67
2022/10/14 05:43:01;;;;;;;36.50;17.10;;;;;;;8.11;100.00;101039.44;1685897;85;21141;-65
2022/10/14 05:45:28;;;;;;;38.75;17.20;;;;;;;8.06;100.00;101034.70;1704134;83;21045;-66
2022/10/14 05:47:55;;;;;;;30.35;15.50;;;;;;;8.11;100.00;101046.00;1714671;83;21129;-67
2022/10/14 05:50:23;;;;;;;34.50;16.52;;;;;;;8.13;100.00;101044.23;1714751;83;21108;-67
2022/10/14 05:52:52;;;;;;;29.55;14.87;;;;;;;8.22;100.00;101043.70;1714530;83;21158;-66
2022/10/14 05:55:23;;;;;;;30.02;14.50;;;;;;;8.27;100.00;101040.57;1714414;83;21109;-67
2022/10/14 05:57:56;;;;;;;31.52;14.98;;;;;;;8.32;100.00;101038.75;1714730;83;21069;-66
2022/10/14 06:00:25;;;;;;;36.13;16.37;;;;;;;8.34;100.00;101046.16;1714695;83;21140;-65
2022/10/14 06:02:52;;;;;;;32.45;16.23;;;;;;;8.36;100.00;101045.70;1714632;83;22273;-64
2022/10/14 06:05:19;;;;;;;32.98;15.70;;;;;;;8.37;100.00;101047.42;1714918;83;21113;-65
2022/10/14 06:07:47;;;;;;;31.30;15.32;;;;;;;8.37;100.00;101052.67;1714713;83;21074;-65
2022/10/14 06:10:14;;;;;;;37.70;15.80;;;;;;;8.37;100.00;101052.67;1714916;83;21081;-65
2022/10/14 06:12:43;;;;;;;35.52;14.75;;;;;;;8.39;100.00;101047.82;1714893;83;21089;-65
2022/10/14 06:15:10;;;;;;;28.62;13.70;;;;;;;8.45;100.00;101057.42;1714575;83;21085;-66
2022/10/14 06:17:37;;;;;;;30.23;13.60;;;;;;;8.49;100.00;101057.81;1690533;83;21985;-66
2022/10/14 06:20:05;;;;;;;29.87;14.45;;;;;;;8.51;100.00;101048.16;1714770;83;21557;-66
2022/10/14 06:22:31;;;;;;;27.52;13.15;;;;;;;8.57;100.00;101053.30;1714825;83;21620;-67
2022/10/14 06:24:58;;;;;;;34.60;14.58;;;;;;;8.65;100.00;101053.64;1714723;83;21054;-65
2022/10/14 06:27:26;;;;;;;26.65;13.95;;;;;;;8.76;100.00;101058.29;1714797;83;21041;-64
2022/10/14 06:29:53;;;;;;;21.82;12.03;;;;;;;8.88;100.00;101055.92;1690304;83;21243;-66
2022/10/14 06:32:19;;;;;;;28.27;13.62;;;;;;;8.98;100.00;101054.45;1714770;83;21018;-65
2022/10/14 06:34:46;;;;;;;27.00;12.58;;;;;;;9.11;100.00;101060.39;1715114;83;21093;-67
2022/10/14 06:37:13;;;;;;;25.15;11.95;;;;;;;9.22;100.00;101056.26;1714991;83;21057;-65
2022/10/14 06:39:42;;;;;;;24.27;11.55;;;;;;;9.29;100.00;101060.52;1714887;83;21145;-65
2022/10/14 06:42:08;;;;;;;27.85;12.73;;;;;;;9.32;100.00;101058.31;1714895;83;21114;-66
2022/10/14 06:44:35;;;;;;;33.08;13.40;;;;;;;9.33;100.00;101058.27;1714604;83;21073;-66
2022/10/14 06:47:01;;;;;;;25.88;12.33;;;;;;;9.37;100.00;101062.58;1714682;83;21061;-65
2022/10/14 06:49:28;;;;;;;24.00;11.33;;;;;;;9.48;100.00;101058.88;1714744;83;21664;-64
2022/10/14 06:51:56;;;;;;;28.75;11.50;;;;;;;9.62;100.00;101066.10;1714720;83;21692;-67
2022/10/14 06:54:24;;;;;;;25.48;11.43;;;;;;;9.75;100.00;101063.64;1714673;83;22428;-66
2022/10/14 06:56:51;;;;;;;25.80;11.20;;;;;;;9.90;100.00;101061.64;1714537;83;21799;-66
2022/10/14 06:59:18;;;;;;;26.65;12.05;;;;;;;10.01;100.00;101060.53;1714869;83;21538;-66
2022/10/14 07:01:45;;;;;;;31.50;11.15;;;;;;;10.19;100.00;101059.30;1715056;83;21085;-66
2022/10/14 07:04:11;;;;;;;20.97;9.95;;;;;;;10.39;100.00;101058.89;1715030;83;21295;-65
2022/10/14 07:06:38;;;;;;;27.70;9.78;;;;;;;10.54;100.00;101059.02;1714862;83;22498;-66
2022/10/14 07:09:05;;;;;;;26.82;10.28;;;;;;;10.69;100.00;101057.34;1714646;83;21566;-65
2022/10/14 07:11:33;;;;;;;23.62;10.58;;;;;;;10.86;100.00;101056.11;1714557;83;21041;-65
2022/10/14 07:14:02;;;;;;;27.60;10.10;;;;;;;11.07;100.00;101060.86;1714509;83;21061;-65
2022/10/14 07:16:28;;;;;;;17.15;9.03;;;;;;;11.40;100.00;101063.56;1714799;83;21053;-64
2022/10/14 07:18:56;;;;;;;20.08;9.30;;;;;;;11.68;100.00;101054.92;1714575;83;21277;-65
2022/10/14 07:21:24;;;;;;;17.25;8.45;;;;;;;12.10;100.00;101055.55;1714575;83;21015;-65
2022/10/14 07:23:51;;;;;;;16.30;8.00;;;;;;;12.48;99.31;101044.30;1714706;83;21113;-65
2022/10/14 07:26:17;;;;;;;17.95;8.03;;;;;;;12.78;96.63;101053.52;1714788;83;21013;-66
2022/10/14 07:28:45;;;;;;;13.43;7.75;;;;;;;12.90;94.00;101049.63;1714783;83;21093;-65
2022/10/14 07:31:12;;;;;;;18.80;8.00;;;;;;;13.24;94.18;101044.09;1711606;83;21245;-68
2022/10/14 07:33:40;;;;;;;21.15;8.48;;;;;;;13.76;92.69;101042.80;1708626;84;21124;-65
2022/10/14 07:36:11;;;;;;;13.15;7.42;;;;;;;14.27;88.41;101041.33;1708637;84;21152;-67
2022/10/14 07:38:38;;;;;;;16.48;7.15;;;;;;;14.83;78.11;101042.72;1708592;84;21046;-67
2022/10/14 07:41:15;;;;;;;12.50;7.17;;;;;;;15.47;67.24;101039.19;1708738;84;21097;-65
2022/10/14 07:43:37;;;;;;;11.73;7.08;;;;;;;15.70;63.65;101043.53;1707685;84;21953;-65
2022/10/14 07:46:06;;;;;;;15.50;6.75;;;;;;;15.99;61.12;101038.73;1683408;84;21104;-65
2022/10/14 07:48:35;;;;;;;20.02;7.20;;;;;;;16.44;60.07;101036.20;1680199;85;25687;-66
2022/10/14 07:51:02;;;;;;;13.45;6.95;;;;;;;17.02;57.27;101039.68;1680322;85;21065;-66
2022/10/14 07:53:28;;;;;;;14.87;6.90;;;;;;;17.43;58.03;101042.07;1680391;85;21115;-65
2022/10/14 07:55:57;;;;;;;11.80;6.87;;;;;;;18.20;56.21;101039.78;1680373;85;21221;-66
2022/10/14 07:58:29;;;;;;;14.50;6.75;;;;;;;18.73;53.24;101032.89;1680380;85;21057;-66
2022/10/14 08:00:58;;;;;;;14.65;6.80;;;;;;;19.26;53.80;101038.30;1680373;85;21034;-66
2022/10/14 08:03:24;;;;;;;14.30;6.65;;;;;;;18.99;48.62;101032.28;1680568;85;21068;-65
2022/10/14 08:06:03;;;;;;;14.55;6.53;;;;;;;18.36;49.80;101037.63;1680316;85;21579;-67
2022/10/14 08:08:30;;;;;;;13.62;6.33;;;;;;;17.87;51.21;101033.59;1680611;85;21579;-68
2022/10/14 08:11:07;;;;;;;17.12;6.92;;;;;;;17.71;52.33;101033.03;1680146;85;21098;-66
2022/10/14 08:13:35;;;;;;;11.45;5.58;;;;;;;18.09;52.80;101031.50;1679612;85;21109;-66
2022/10/14 08:16:02;;;;;;;12.80;6.33;;;;;;;18.36;51.05;101033.63;1680278;85;21136;-66
2022/10/14 08:18:31;;;;;;;10.90;5.30;;;;;;;18.29;50.89;101030.88;1680246;85;21124;-68
2022/10/14 08:20:57;;;;;;;9.25;4.70;;;;;;;18.15;51.16;101027.19;1680061;85;21204;-66
2022/10/14 08:23:25;;;;;;;14.35;5.62;;;;;;;17.98;51.13;101032.55;1680055;85;21190;-66
2022/10/14 08:25:51;;;;;;;13.32;5.15;;;;;;;17.59;50.98;101032.34;1653014;85;21121;-66
2022/10/14 08:28:17;;;;;;;12.58;4.78;;;;;;;17.29;52.04;101027.65;1680083;85;21069;-66
2022/10/14 08:30:44;;;;;;;11.48;5.17;;;;;;;17.48;51.76;101028.04;1680395;85;21081;-66
2022/10/14 08:33:12;;;;;;;10.35;5.12;;;;;;;17.57;51.13;101027.56;1680262;85;21167;-67
2022/10/14 08:35:39;;;;;;;12.10;4.80;;;;;;;17.40;51.29;101033.77;1680182;85;21053;-66
2022/10/14 08:38:05;;;;;;;14.95;5.40;;;;;;;17.29;51.41;101030.79;1680229;85;21098;-65
2022/10/14 08:40:37;;;;;;;18.10;6.80;;;;;;;17.27;51.91;101030.00;1680359;85;21042;-67
2022/10/14 08:43:24;;;;;;;11.10;4.85;;;;;;;17.48;51.64;101020.91;1678294;85;21074;-65
2022/10/14 08:45:54;;;;;;;8.35;4.58;;;;;;;17.30;50.28;101030.72;1702741;84;21166;-66
2022/10/14 08:48:24;;;;;;;10.90;4.15;;;;;;;16.78;50.26;101023.95;1708512;84;21097;-65
2022/10/14 08:51:08;;;;;;;8.13;3.65;;;;;;;16.30;51.17;101026.69;1708549;84;21077;-66
2022/10/14 08:53:42;;;;;;;13.83;4.33;;;;;;;15.75;52.11;101022.55;1708251;84;21089;-66
2022/10/14 08:56:09;;;;;;;9.65;4.03;;;;;;;15.41;53.76;101027.49;1708682;83;21101;-67
2022/10/14 08:58:49;;;;;;;11.20;4.10;;;;;;;15.23;54.13;101021.20;1708461;84;21101;-66
2022/10/14 09:01:25;;;;;;;11.22;3.30;;;;;;;15.10;53.89;101022.63;1708558;84;21022;-66
2022/10/14 09:03:58;;;;;;;8.10;3.45;;;;;;;14.93;51.47;101029.97;1708511;83;21039;-65
2022/10/14 09:06:27;;;;;;;7.20;3.10;;;;;;;14.94;51.83;101028.17;1708716;84;21553;-66
2022/10/14 09:09:05;;;;;;;9.58;3.50;;;;;;;15.29;51.42;101027.55;1708460;83;21086;-66
2022/10/14 09:11:39;;;;;;;8.53;3.42;;;;;;;15.95;51.62;101031.83;1708381;84;21112;-67
2022/10/14 09:14:11;;;;;;;7.37;3.05;;;;;;;16.23;48.66;101019.94;1708550;84;21058;-66
2022/10/14 09:16:39;;;;;;;7.65;2.50;;;;;;;16.82;47.73;101018.92;1708206;84;21164;-66
2022/10/14 09:19:23;;;;;;;10.03;3.25;;;;;;;17.45;46.49;101025.55;1708574;84;21069;-66
2022/10/14 09:21:52;;;;;;;5.62;2.45;;;;;;;18.01;43.85;101021.72;1700401;84;21098;-66
2022/10/14 09:24:26;;;;;;;5.17;2.55;;;;;;;18.54;42.29;101012.59;1708742;84;21137;-67
2022/10/14 09:27:05;;;;;;;5.70;2.15;;;;;;;19.03;40.54;101020.48;1708930;83;21078;-66
2022/10/14 09:29:56;;;;;;;5.60;1.85;;;;;;;19.47;38.97;101012.98;1708629;84;21089;-66
2022/10/14 09:32:48;;;;;;;7.12;2.72;;;;;;;19.54;35.35;101011.28;1708436;83;21077;-67
2022/10/14 09:35:27;;;;;;;5.42;2.00;;;;;;;19.54;35.04;101008.61;1708639;83;21403;-67
2022/10/14 09:37:53;;;;;;;3.25;1.40;;;;;;;19.68;33.39;101007.28;1708591;84;21147;-66
2022/10/14 09:40:36;;;;;;;4.60;1.40;;;;;;;19.34;32.95;101005.31;1708557;83;21598;-65
2022/10/14 09:43:12;;;;;;;3.58;1.60;;;;;;;19.48;32.58;101002.66;1708572;84;21155;-66
2022/10/14 09:46:06;;;;;;;6.28;2.45;;;;;;;19.79;32.83;100999.50;1687739;84;21665;-67
2022/10/14 09:48:45;;;;;;;4.58;2.02;;;;;;;20.18;32.97;100991.28;1680128;85;21105;-67
2022/10/14 09:51:26;;;;;;;4.55;1.90;;;;;;;20.35;31.35;100985.33;1679723;85;21167;-66
2022/10/14 09:53:58;;;;;;;4.47;2.00;;;;;;;20.56;31.97;100983.07;1680239;85;21079;-66
2022/10/14 09:56:33;;;;;;;4.92;2.35;;;;;;;20.85;31.96;100980.70;1679958;85;21125;-66
2022/10/14 09:59:00;;;;;;;7.78;2.70;;;;;;;20.84;31.86;100980.80;1680419;85;21061;-67
2022/10/14 10:01:49;;;;;;;5.85;2.05;;;;;;;21.02;32.00;100987.59;1680312;85;21054;-66
2022/10/14 10:04:45;;;;;;;3.75;2.25;;;;;;;20.97;31.97;100975.00;1680354;85;21141;-67
2022/10/14 10:07:31;;;;;;;5.87;1.90;;;;;;;21.00;32.06;100980.63;1679902;85;21074;-66
2022/10/14 10:10:01;;;;;;;4.47;2.02;;;;;;;20.87;31.46;100981.95;1680053;85;21120;-67
2022/10/14 10:12:33;;;;;;;3.58;1.90;;;;;;;20.91;32.29;100969.59;1680036;85;21128;-67
2022/10/14 10:15:02;;;;;;;5.72;2.00;;;;;;;21.30;31.47;100983.05;1680158;85;21061;-67
2022/10/14 10:17:34;;;;;;;4.10;1.92;;;;;;;21.54;31.00;100973.35;1680161;85;21883;-67
2022/10/14 10:20:19;;;;;;;4.37;1.92;;;;;;;21.54;31.03;100977.86;1697769;84;21585;-65
2022/10/14 10:22:47;;;;;;;6.45;1.90;;;;;;;21.78;30.65;100967.23;1708657;84;21553;-66
2022/10/14 10:25:18;;;;;;;6.08;1.95;;;;;;;22.18;30.44;100965.23;1680535;84;21109;-65
2022/10/14 10:27:46;;;;;;;;;;;;;;;22.42;30.27;100973.83;1711353;84;21112;-67
2022/10/14 10:30:28;;;;;;;4.67;2.40;;;;;;;22.57;28.81;100973.20;1708797;84;21094;-66
2022/10/14 10:33:13;;;;;;;6.28;2.10;;;;;;;22.32;30.19;100964.27;1715702;83;21065;-66
2022/10/14 10:36:08;;;;;;;5.00;2.15;;;;;;;22.15;29.91;100967.27;1717554;83;21076;-66
2022/10/14 10:39:07;;;;;;;4.22;2.00;;;;;;;22.20;29.69;100966.45;1717240;83;21022;-68
2022/10/14 10:42:01;;;;;;;6.85;2.72;;;;;;;22.36;30.17;100961.73;1716896;83;21526;-67
2022/10/14 10:44:52;;;;;;;5.53;2.22;;;;;;;22.51;30.13;100966.94;1717250;83;21250;-67
2022/10/14 10:47:40;;;;;;;5.00;2.20;;;;;;;22.34;28.83;100961.48;1717380;83;21077;-69
2022/10/14 10:50:20;;;;;;;8.40;2.37;;;;;;;22.14;29.41;100960.20;1717099;83;21077;-67
2022/10/14 10:53:02;;;;;;;4.67;2.10;;;;;;;22.18;29.25;100960.36;1717375;83;21125;-66
2022/10/14 10:56:10;;;;;;;6.00;2.15;;;;;;;22.12;28.68;100967.50;1717252;83;21089;-68
2022/10/14 10:58:53;;;;;;;9.13;2.50;;;;;;;22.04;29.50;100951.09;1717452;83;21094;-67
2022/10/14 11:01:38;;;;;;;4.65;2.15;;;;;;;22.31;29.42;100953.14;1717167;83;20989;-67
2022/10/14 11:04:41;;;;;;;4.03;2.12;;;;;;;22.08;28.60;100945.89;1717611;83;21085;-67
2022/10/14 11:13:31;;;;;;;5.20;2.30;;;;;;;21.71;30.07;100939.99;1717317;83;21207;-66
2022/10/14 11:16:35;;;;;;;5.00;2.10;;;;;;;21.64;30.00;100952.12;1717053;83;21053;-68
2022/10/14 11:19:18;;;;;;;3.50;1.80;;;;;;;21.25;30.46;100939.64;1717144;83;21100;-67
2022/10/14 11:22:05;;;;;;;5.37;1.92;;;;;;;21.32;31.04;100935.58;1717412;83;21025;-67
2022/10/14 11:24:57;;;;;;;5.53;2.12;;;;;;;21.11;30.66;100941.45;1716997;83;21089;-67
2022/10/14 11:27:40;;;;;;;4.45;2.10;;;;;;;21.12;30.72;100935.14;1716976;83;21265;-66
2022/10/14 11:30:24;;;;;;;5.08;2.52;;;;;;;21.11;30.55;100924.03;1717026;83;21595;-67
2022/10/14 11:33:20;;;;;;;3.65;2.10;;;;;;;20.84;31.09;100920.56;1717033;83;21085;-68
2022/10/14 11:35:52;;;;;;;5.80;2.45;;;;;;;20.76;30.83;100921.58;1717307;83;21069;-67
2022/10/14 11:38:57;;;;;;;6.87;2.08;;;;;;;20.50;30.89;100921.47;1687962;83;21037;-68
2022/10/14 11:41:53;;;;;;;4.53;2.20;;;;;;;20.18;31.08;100923.09;1717290;83;21483;-66
2022/10/14 11:46:21;;;;;;;5.15;2.30;;;;;;;19.35;32.47;100909.56;1778486;79;22647;-67
2022/10/14 11:48:58;;;;;;;6.65;2.65;;;;;;;19.35;33.04;100917.58;1752670;81;21091;-67